Morristown, Arizona
Current Conditions -  °F | °C
As of 12:58 PM on Thursday 29 Jan 2015 (Local Time) from KLUF Reporting Station
Broken Clouds Broken Clouds  
Wind Chill: 68°   Ceiling: 15000
Heat Index: 68°   Visibility: 10mi
Dew Point: 49°   Wind: 0mph
Humidity: 52%   Direction: NA
Pressure: 30.03"   Gusts: NA
Location:  33.86°N, 112.63°W
Report Text: KLUF 291958Z 00000KT 10SM BKN150 20/10 A3003 RMK AO2A SLP163 T01980097 $
Loading
Personal Weather Stations






























Interactive Weather Map New forecast layout! Learn more

10-Day Weather Forecast

Advertisements
Track Severe Weather on mobile